sensor_id;sensor_type;location;lat;lon;timestamp;P1;durP1;ratioP1;P2;durP2;ratioP2
81648;SDS011;71057;51.436;6.768;2023-08-01T00:02:10;3.63;;;2.93;;
81648;SDS011;71057;51.436;6.768;2023-08-01T00:04:35;5.50;;;4.18;;
81648;SDS011;71057;51.436;6.768;2023-08-01T00:07:01;6.30;;;5.00;;
81648;SDS011;71057;51.436;6.768;2023-08-01T00:09:26;6.13;;;5.53;;
81648;SDS011;71057;51.436;6.768;2023-08-01T00:11:51;7.77;;;6.43;;
81648;SDS011;71057;51.436;6.768;2023-08-01T00:14:16;5.53;;;4.30;;
81648;SDS011;71057;51.436;6.768;2023-08-01T00:16:42;7.68;;;5.47;;
81648;SDS011;71057;51.436;6.768;2023-08-01T00:19:07;4.17;;;3.77;;
81648;SDS011;71057;51.436;6.768;2023-08-01T00:21:32;5.40;;;4.10;;
81648;SDS011;71057;51.436;6.768;2023-08-01T00:23:58;3.35;;;2.60;;
81648;SDS011;71057;51.436;6.768;2023-08-01T00:26:23;3.20;;;2.20;;
81648;SDS011;71057;51.436;6.768;2023-08-01T00:28:48;4.23;;;2.83;;
81648;SDS011;71057;51.436;6.768;2023-08-01T00:31:14;3.35;;;2.53;;
81648;SDS011;71057;51.436;6.768;2023-08-01T00:33:39;2.63;;;2.10;;
81648;SDS011;71057;51.436;6.768;2023-08-01T00:36:04;3.57;;;2.50;;
81648;SDS011;71057;51.436;6.768;2023-08-01T00:38:34;3.35;;;2.17;;
81648;SDS011;71057;51.436;6.768;2023-08-01T00:40:59;2.50;;;2.20;;
81648;SDS011;71057;51.436;6.768;2023-08-01T00:43:24;2.60;;;2.00;;
81648;SDS011;71057;51.436;6.768;2023-08-01T00:45:49;3.87;;;3.40;;
81648;SDS011;71057;51.436;6.768;2023-08-01T00:48:15;3.47;;;3.17;;
81648;SDS011;71057;51.436;6.768;2023-08-01T00:50:40;3.92;;;3.53;;
81648;SDS011;71057;51.436;6.768;2023-08-01T00:53:05;3.60;;;2.37;;
81648;SDS011;71057;51.436;6.768;2023-08-01T00:55:31;4.85;;;2.45;;
81648;SDS011;71057;51.436;6.768;2023-08-01T00:57:57;2.45;;;2.00;;
81648;SDS011;71057;51.436;6.768;2023-08-01T01:00:22;3.80;;;2.10;;
81648;SDS011;71057;51.436;6.768;2023-08-01T01:02:48;3.40;;;2.40;;
81648;SDS011;71057;51.436;6.768;2023-08-01T01:05:13;3.53;;;2.83;;
81648;SDS011;71057;51.436;6.768;2023-08-01T01:07:39;2.37;;;1.90;;
81648;SDS011;71057;51.436;6.768;2023-08-01T01:10:04;2.42;;;2.00;;
81648;SDS011;71057;51.436;6.768;2023-08-01T01:12:29;3.90;;;2.83;;
81648;SDS011;71057;51.436;6.768;2023-08-01T01:14:55;3.23;;;2.40;;
81648;SDS011;71057;51.436;6.768;2023-08-01T01:17:20;3.07;;;2.77;;
81648;SDS011;71057;51.436;6.768;2023-08-01T01:19:45;3.80;;;3.07;;
81648;SDS011;71057;51.436;6.768;2023-08-01T01:22:10;2.97;;;2.53;;
81648;SDS011;71057;51.436;6.768;2023-08-01T01:24:35;3.28;;;2.95;;
81648;SDS011;71057;51.436;6.768;2023-08-01T01:27:01;3.00;;;2.38;;
81648;SDS011;71057;51.436;6.768;2023-08-01T01:29:29;4.18;;;3.35;;
81648;SDS011;71057;51.436;6.768;2023-08-01T01:31:54;4.07;;;2.95;;
81648;SDS011;71057;51.436;6.768;2023-08-01T01:34:20;4.60;;;3.33;;
81648;SDS011;71057;51.436;6.768;2023-08-01T01:36:45;4.05;;;3.30;;
81648;SDS011;71057;51.436;6.768;2023-08-01T01:39:11;3.03;;;2.73;;
81648;SDS011;71057;51.436;6.768;2023-08-01T01:41:36;4.33;;;2.57;;
81648;SDS011;71057;51.436;6.768;2023-08-01T01:44:01;5.07;;;3.40;;
81648;SDS011;71057;51.436;6.768;2023-08-01T01:46:26;4.50;;;3.33;;
81648;SDS011;71057;51.436;6.768;2023-08-01T01:48:51;4.03;;;3.43;;
81648;SDS011;71057;51.436;6.768;2023-08-01T01:51:17;4.83;;;3.77;;
81648;SDS011;71057;51.436;6.768;2023-08-01T01:53:42;4.33;;;3.23;;
81648;SDS011;71057;51.436;6.768;2023-08-01T01:56:07;5.17;;;4.13;;
81648;SDS011;71057;51.436;6.768;2023-08-01T01:58:32;4.40;;;3.50;;
81648;SDS011;71057;51.436;6.768;2023-08-01T02:00:57;4.07;;;3.53;;
81648;SDS011;71057;51.436;6.768;2023-08-01T02:03:23;5.00;;;4.10;;
81648;SDS011;71057;51.436;6.768;2023-08-01T02:05:48;4.60;;;4.13;;
81648;SDS011;71057;51.436;6.768;2023-08-01T02:08:13;4.90;;;2.93;;
81648;SDS011;71057;51.436;6.768;2023-08-01T02:10:38;5.85;;;4.20;;
81648;SDS011;71057;51.436;6.768;2023-08-01T02:13:04;6.23;;;3.80;;
81648;SDS011;71057;51.436;6.768;2023-08-01T02:15:29;7.60;;;4.73;;
81648;SDS011;71057;51.436;6.768;2023-08-01T02:17:54;6.87;;;3.77;;
81648;SDS011;71057;51.436;6.768;2023-08-01T02:20:20;7.53;;;5.28;;
81648;SDS011;71057;51.436;6.768;2023-08-01T02:22:45;5.27;;;3.57;;
81648;SDS011;71057;51.436;6.768;2023-08-01T02:25:10;6.75;;;4.57;;
81648;SDS011;71057;51.436;6.768;2023-08-01T02:27:36;8.60;;;3.92;;
81648;SDS011;71057;51.436;6.768;2023-08-01T02:30:01;5.87;;;4.70;;
81648;SDS011;71057;51.436;6.768;2023-08-01T02:32:27;9.02;;;5.72;;
81648;SDS011;71057;51.436;6.768;2023-08-01T02:34:52;9.40;;;5.23;;
81648;SDS011;71057;51.436;6.768;2023-08-01T02:37:17;10.13;;;6.47;;
81648;SDS011;71057;51.436;6.768;2023-08-01T02:39:42;10.47;;;6.03;;
81648;SDS011;71057;51.436;6.768;2023-08-01T02:42:07;14.37;;;7.40;;
81648;SDS011;71057;51.436;6.768;2023-08-01T02:44:33;8.95;;;5.70;;
81648;SDS011;71057;51.436;6.768;2023-08-01T02:46:58;12.07;;;8.02;;
81648;SDS011;71057;51.436;6.768;2023-08-01T02:49:23;11.23;;;8.20;;
81648;SDS011;71057;51.436;6.768;2023-08-01T02:51:49;12.13;;;8.43;;
81648;SDS011;71057;51.436;6.768;2023-08-01T02:54:14;13.30;;;8.27;;
81648;SDS011;71057;51.436;6.768;2023-08-01T02:56:39;14.63;;;9.17;;
81648;SDS011;71057;51.436;6.768;2023-08-01T02:59:09;16.80;;;9.85;;
81648;SDS011;71057;51.436;6.768;2023-08-01T03:01:35;14.77;;;9.45;;
81648;SDS011;71057;51.436;6.768;2023-08-01T03:04:02;15.18;;;10.90;;
81648;SDS011;71057;51.436;6.768;2023-08-01T03:06:27;15.00;;;10.13;;
81648;SDS011;71057;51.436;6.768;2023-08-01T03:08:52;15.40;;;9.70;;
81648;SDS011;71057;51.436;6.768;2023-08-01T03:11:17;15.40;;;11.33;;
81648;SDS011;71057;51.436;6.768;2023-08-01T03:13:42;15.73;;;9.97;;
81648;SDS011;71057;51.436;6.768;2023-08-01T03:16:07;14.23;;;10.40;;
81648;SDS011;71057;51.436;6.768;2023-08-01T03:18:35;16.55;;;10.82;;
81648;SDS011;71057;51.436;6.768;2023-08-01T03:21:00;19.40;;;11.90;;
81648;SDS011;71057;51.436;6.768;2023-08-01T03:23:25;17.10;;;11.13;;
81648;SDS011;71057;51.436;6.768;2023-08-01T03:25:50;21.13;;;11.17;;
81648;SDS011;71057;51.436;6.768;2023-08-01T03:28:15;18.83;;;11.10;;
81648;SDS011;71057;51.436;6.768;2023-08-01T03:30:40;16.63;;;10.57;;
81648;SDS011;71057;51.436;6.768;2023-08-01T03:33:06;16.37;;;9.80;;
81648;SDS011;71057;51.436;6.768;2023-08-01T03:35:31;16.50;;;9.77;;
81648;SDS011;71057;51.436;6.768;2023-08-01T03:37:56;15.87;;;9.37;;
81648;SDS011;71057;51.436;6.768;2023-08-01T03:40:21;18.38;;;9.80;;
81648;SDS011;71057;51.436;6.768;2023-08-01T03:42:46;16.47;;;10.73;;
81648;SDS011;71057;51.436;6.768;2023-08-01T03:45:11;18.63;;;11.07;;
81648;SDS011;71057;51.436;6.768;2023-08-01T03:47:37;14.63;;;9.67;;
81648;SDS011;71057;51.436;6.768;2023-08-01T03:50:02;20.95;;;12.68;;
81648;SDS011;71057;51.436;6.768;2023-08-01T03:52:28;15.20;;;10.13;;
81648;SDS011;71057;51.436;6.768;2023-08-01T03:54:54;22.15;;;11.40;;
81648;SDS011;71057;51.436;6.768;2023-08-01T03:57:19;18.02;;;11.25;;
81648;SDS011;71057;51.436;6.768;2023-08-01T03:59:45;17.03;;;10.33;;
81648;SDS011;71057;51.436;6.768;2023-08-01T04:02:10;16.08;;;9.05;;
81648;SDS011;71057;51.436;6.768;2023-08-01T04:04:36;20.17;;;10.73;;
81648;SDS011;71057;51.436;6.768;2023-08-01T04:07:01;22.48;;;14.27;;
81648;SDS011;71057;51.436;6.768;2023-08-01T04:09:26;20.10;;;13.50;;
81648;SDS011;71057;51.436;6.768;2023-08-01T04:11:51;18.93;;;11.87;;
81648;SDS011;71057;51.436;6.768;2023-08-01T04:14:16;19.93;;;11.20;;
81648;SDS011;71057;51.436;6.768;2023-08-01T04:16:41;21.13;;;11.43;;
81648;SDS011;71057;51.436;6.768;2023-08-01T04:19:07;17.47;;;10.40;;
81648;SDS011;71057;51.436;6.768;2023-08-01T04:21:32;21.73;;;11.27;;
81648;SDS011;71057;51.436;6.768;2023-08-01T04:23:57;18.30;;;12.30;;
81648;SDS011;71057;51.436;6.768;2023-08-01T04:26:22;19.97;;;11.40;;
81648;SDS011;71057;51.436;6.768;2023-08-01T04:28:47;18.30;;;11.10;;
81648;SDS011;71057;51.436;6.768;2023-08-01T04:31:13;19.03;;;10.73;;
81648;SDS011;71057;51.436;6.768;2023-08-01T04:33:38;18.80;;;11.57;;
81648;SDS011;71057;51.436;6.768;2023-08-01T04:36:03;18.17;;;11.93;;
81648;SDS011;71057;51.436;6.768;2023-08-01T04:38:28;20.07;;;12.40;;
81648;SDS011;71057;51.436;6.768;2023-08-01T04:40:53;17.63;;;11.27;;
81648;SDS011;71057;51.436;6.768;2023-08-01T04:43:19;22.33;;;12.37;;
81648;SDS011;71057;51.436;6.768;2023-08-01T04:45:44;17.57;;;10.80;;
81648;SDS011;71057;51.436;6.768;2023-08-01T04:48:10;22.63;;;12.85;;
81648;SDS011;71057;51.436;6.768;2023-08-01T04:50:35;19.87;;;10.87;;
81648;SDS011;71057;51.436;6.768;2023-08-01T04:53:00;21.50;;;12.20;;
81648;SDS011;71057;51.436;6.768;2023-08-01T04:55:25;19.73;;;11.17;;
81648;SDS011;71057;51.436;6.768;2023-08-01T04:57:50;20.23;;;12.63;;
81648;SDS011;71057;51.436;6.768;2023-08-01T05:00:16;21.83;;;12.27;;
81648;SDS011;71057;51.436;6.768;2023-08-01T05:02:41;21.83;;;13.02;;
81648;SDS011;71057;51.436;6.768;2023-08-01T05:05:07;22.48;;;11.85;;
81648;SDS011;71057;51.436;6.768;2023-08-01T05:07:32;20.02;;;12.68;;
81648;SDS011;71057;51.436;6.768;2023-08-01T05:09:57;20.47;;;12.23;;
81648;SDS011;71057;51.436;6.768;2023-08-01T05:12:22;25.17;;;12.60;;
81648;SDS011;71057;51.436;6.768;2023-08-01T05:14:48;23.17;;;12.87;;
81648;SDS011;71057;51.436;6.768;2023-08-01T05:17:13;19.53;;;13.10;;
81648;SDS011;71057;51.436;6.768;2023-08-01T05:19:38;20.50;;;13.05;;
81648;SDS011;71057;51.436;6.768;2023-08-01T05:22:04;21.63;;;13.70;;
81648;SDS011;71057;51.436;6.768;2023-08-01T05:24:29;21.73;;;12.68;;
81648;SDS011;71057;51.436;6.768;2023-08-01T05:26:54;20.65;;;12.18;;
81648;SDS011;71057;51.436;6.768;2023-08-01T05:29:19;19.70;;;12.20;;
81648;SDS011;71057;51.436;6.768;2023-08-01T05:31:44;25.03;;;13.80;;
81648;SDS011;71057;51.436;6.768;2023-08-01T05:34:10;25.63;;;14.33;;
81648;SDS011;71057;51.436;6.768;2023-08-01T05:36:35;24.90;;;13.27;;
81648;SDS011;71057;51.436;6.768;2023-08-01T05:39:02;22.05;;;12.57;;
81648;SDS011;71057;51.436;6.768;2023-08-01T05:41:27;23.92;;;14.18;;
81648;SDS011;71057;51.436;6.768;2023-08-01T05:43:52;21.43;;;13.37;;
81648;SDS011;71057;51.436;6.768;2023-08-01T05:46:17;23.27;;;13.80;;
81648;SDS011;71057;51.436;6.768;2023-08-01T05:48:43;21.60;;;12.67;;
81648;SDS011;71057;51.436;6.768;2023-08-01T05:51:08;24.50;;;14.10;;
81648;SDS011;71057;51.436;6.768;2023-08-01T05:53:33;21.40;;;12.83;;
81648;SDS011;71057;51.436;6.768;2023-08-01T05:55:58;23.35;;;12.68;;
81648;SDS011;71057;51.436;6.768;2023-08-01T05:58:23;22.83;;;13.10;;
81648;SDS011;71057;51.436;6.768;2023-08-01T06:00:48;20.87;;;11.53;;
81648;SDS011;71057;51.436;6.768;2023-08-01T06:03:14;20.90;;;11.73;;
81648;SDS011;71057;51.436;6.768;2023-08-01T06:05:39;19.30;;;12.20;;
81648;SDS011;71057;51.436;6.768;2023-08-01T06:08:06;22.50;;;12.33;;
81648;SDS011;71057;51.436;6.768;2023-08-01T06:10:31;19.65;;;12.18;;
81648;SDS011;71057;51.436;6.768;2023-08-01T06:12:56;21.30;;;11.05;;
81648;SDS011;71057;51.436;6.768;2023-08-01T06:15:21;18.07;;;12.00;;
81648;SDS011;71057;51.436;6.768;2023-08-01T06:17:47;18.92;;;10.93;;
81648;SDS011;71057;51.436;6.768;2023-08-01T06:20:12;19.40;;;11.47;;
81648;SDS011;71057;51.436;6.768;2023-08-01T06:22:37;21.20;;;12.73;;
81648;SDS011;71057;51.436;6.768;2023-08-01T06:25:03;16.85;;;11.43;;
81648;SDS011;71057;51.436;6.768;2023-08-01T06:27:28;23.63;;;12.43;;
81648;SDS011;71057;51.436;6.768;2023-08-01T06:29:53;17.83;;;11.70;;
81648;SDS011;71057;51.436;6.768;2023-08-01T06:32:18;18.33;;;11.27;;
81648;SDS011;71057;51.436;6.768;2023-08-01T06:34:43;17.67;;;10.73;;
81648;SDS011;71057;51.436;6.768;2023-08-01T06:37:09;18.83;;;11.10;;
81648;SDS011;71057;51.436;6.768;2023-08-01T06:39:35;19.50;;;10.75;;
81648;SDS011;71057;51.436;6.768;2023-08-01T06:42:00;18.20;;;10.47;;
81648;SDS011;71057;51.436;6.768;2023-08-01T06:44:25;15.60;;;9.50;;
81648;SDS011;71057;51.436;6.768;2023-08-01T06:46:50;18.70;;;9.33;;
81648;SDS011;71057;51.436;6.768;2023-08-01T06:49:16;14.77;;;9.63;;
81648;SDS011;71057;51.436;6.768;2023-08-01T06:51:41;14.10;;;9.43;;
81648;SDS011;71057;51.436;6.768;2023-08-01T06:54:07;18.50;;;8.90;;
81648;SDS011;71057;51.436;6.768;2023-08-01T06:56:33;12.48;;;8.98;;
81648;SDS011;71057;51.436;6.768;2023-08-01T06:58:58;15.10;;;8.50;;
81648;SDS011;71057;51.436;6.768;2023-08-01T07:01:23;14.57;;;8.27;;
81648;SDS011;71057;51.436;6.768;2023-08-01T07:03:48;12.87;;;7.90;;
81648;SDS011;71057;51.436;6.768;2023-08-01T07:06:16;13.40;;;7.20;;
81648;SDS011;71057;51.436;6.768;2023-08-01T07:08:41;12.47;;;7.80;;
81648;SDS011;71057;51.436;6.768;2023-08-01T07:11:06;12.10;;;7.73;;
81648;SDS011;71057;51.436;6.768;2023-08-01T07:13:31;13.13;;;7.27;;
81648;SDS011;71057;51.436;6.768;2023-08-01T07:15:56;13.00;;;7.37;;
81648;SDS011;71057;51.436;6.768;2023-08-01T07:18:21;13.70;;;8.10;;
81648;SDS011;71057;51.436;6.768;2023-08-01T07:20:47;12.57;;;7.40;;
81648;SDS011;71057;51.436;6.768;2023-08-01T07:23:12;15.40;;;8.10;;
81648;SDS011;71057;51.436;6.768;2023-08-01T07:25:37;11.43;;;6.80;;
81648;SDS011;71057;51.436;6.768;2023-08-01T07:28:02;12.70;;;7.10;;
81648;SDS011;71057;51.436;6.768;2023-08-01T07:30:27;14.40;;;7.43;;
81648;SDS011;71057;51.436;6.768;2023-08-01T07:32:53;15.27;;;7.27;;
81648;SDS011;71057;51.436;6.768;2023-08-01T07:35:18;12.07;;;7.43;;
81648;SDS011;71057;51.436;6.768;2023-08-01T07:37:43;14.37;;;8.53;;
81648;SDS011;71057;51.436;6.768;2023-08-01T07:40:08;14.30;;;8.17;;
81648;SDS011;71057;51.436;6.768;2023-08-01T07:42:34;14.80;;;7.55;;
81648;SDS011;71057;51.436;6.768;2023-08-01T07:44:59;12.90;;;7.97;;
81648;SDS011;71057;51.436;6.768;2023-08-01T07:47:24;16.57;;;7.50;;
81648;SDS011;71057;51.436;6.768;2023-08-01T07:49:50;12.37;;;7.37;;
81648;SDS011;71057;51.436;6.768;2023-08-01T07:52:15;11.50;;;7.15;;
81648;SDS011;71057;51.436;6.768;2023-08-01T07:54:40;12.80;;;7.90;;
81648;SDS011;71057;51.436;6.768;2023-08-01T07:57:05;11.10;;;7.03;;
81648;SDS011;71057;51.436;6.768;2023-08-01T07:59:31;11.27;;;6.95;;
81648;SDS011;71057;51.436;6.768;2023-08-01T08:01:56;11.40;;;7.53;;
81648;SDS011;71057;51.436;6.768;2023-08-01T08:04:21;11.23;;;6.80;;
81648;SDS011;71057;51.436;6.768;2023-08-01T08:06:46;17.03;;;7.70;;
81648;SDS011;71057;51.436;6.768;2023-08-01T08:09:12;11.60;;;7.55;;
81648;SDS011;71057;51.436;6.768;2023-08-01T08:11:37;11.77;;;7.93;;
81648;SDS011;71057;51.436;6.768;2023-08-01T08:14:02;13.73;;;6.73;;
81648;SDS011;71057;51.436;6.768;2023-08-01T08:16:27;11.47;;;6.97;;
81648;SDS011;71057;51.436;6.768;2023-08-01T08:18:52;14.33;;;6.80;;
81648;SDS011;71057;51.436;6.768;2023-08-01T08:21:18;10.60;;;6.60;;
81648;SDS011;71057;51.436;6.768;2023-08-01T08:23:43;9.27;;;6.00;;
81648;SDS011;71057;51.436;6.768;2023-08-01T08:26:08;10.73;;;6.50;;
81648;SDS011;71057;51.436;6.768;2023-08-01T08:28:33;10.77;;;6.83;;
81648;SDS011;71057;51.436;6.768;2023-08-01T08:30:59;14.57;;;7.15;;
81648;SDS011;71057;51.436;6.768;2023-08-01T08:33:24;11.18;;;6.30;;
81648;SDS011;71057;51.436;6.768;2023-08-01T08:35:49;11.35;;;7.00;;
81648;SDS011;71057;51.436;6.768;2023-08-01T08:38:15;9.38;;;6.38;;
81648;SDS011;71057;51.436;6.768;2023-08-01T08:40:41;8.00;;;5.87;;
81648;SDS011;71057;51.436;6.768;2023-08-01T08:43:08;9.30;;;7.57;;
81648;SDS011;71057;51.436;6.768;2023-08-01T08:45:34;7.88;;;6.20;;
81648;SDS011;71057;51.436;6.768;2023-08-01T08:48:00;13.13;;;7.85;;
81648;SDS011;71057;51.436;6.768;2023-08-01T08:50:26;13.70;;;7.22;;
81648;SDS011;71057;51.436;6.768;2023-08-01T08:52:52;8.80;;;6.25;;
81648;SDS011;71057;51.436;6.768;2023-08-01T08:55:17;10.88;;;7.10;;
81648;SDS011;71057;51.436;6.768;2023-08-01T08:57:46;11.55;;;6.35;;
81648;SDS011;71057;51.436;6.768;2023-08-01T09:00:15;11.63;;;6.35;;
81648;SDS011;71057;51.436;6.768;2023-08-01T09:02:40;11.48;;;6.95;;
81648;SDS011;71057;51.436;6.768;2023-08-01T09:05:06;9.30;;;6.60;;
81648;SDS011;71057;51.436;6.768;2023-08-01T09:07:31;11.40;;;6.40;;
81648;SDS011;71057;51.436;6.768;2023-08-01T09:09:58;9.07;;;6.40;;
81648;SDS011;71057;51.436;6.768;2023-08-01T09:12:23;8.80;;;5.27;;
81648;SDS011;71057;51.436;6.768;2023-08-01T09:14:50;10.25;;;5.68;;
81648;SDS011;71057;51.436;6.768;2023-08-01T09:17:16;7.80;;;4.70;;
81648;SDS011;71057;51.436;6.768;2023-08-01T09:19:43;8.52;;;4.50;;
81648;SDS011;71057;51.436;6.768;2023-08-01T09:22:12;8.65;;;5.38;;
81648;SDS011;71057;51.436;6.768;2023-08-01T09:24:37;9.30;;;4.78;;
81648;SDS011;71057;51.436;6.768;2023-08-01T09:27:03;10.07;;;5.72;;
81648;SDS011;71057;51.436;6.768;2023-08-01T09:29:33;8.52;;;4.63;;
81648;SDS011;71057;51.436;6.768;2023-08-01T09:31:58;9.53;;;4.40;;
81648;SDS011;71057;51.436;6.768;2023-08-01T09:34:24;6.68;;;4.22;;
81648;SDS011;71057;51.436;6.768;2023-08-01T09:36:49;6.07;;;4.30;;
81648;SDS011;71057;51.436;6.768;2023-08-01T09:39:16;8.02;;;4.25;;
81648;SDS011;71057;51.436;6.768;2023-08-01T09:41:41;10.32;;;4.50;;
81648;SDS011;71057;51.436;6.768;2023-08-01T09:44:09;6.30;;;4.37;;
81648;SDS011;71057;51.436;6.768;2023-08-01T09:46:35;7.55;;;4.28;;
81648;SDS011;71057;51.436;6.768;2023-08-01T09:49:07;7.90;;;4.50;;
81648;SDS011;71057;51.436;6.768;2023-08-01T09:51:32;7.97;;;4.78;;
81648;SDS011;71057;51.436;6.768;2023-08-01T09:53:58;9.03;;;5.07;;
81648;SDS011;71057;51.436;6.768;2023-08-01T09:56:23;5.90;;;4.33;;
81648;SDS011;71057;51.436;6.768;2023-08-01T09:58:49;6.80;;;4.25;;
81648;SDS011;71057;51.436;6.768;2023-08-01T10:01:15;7.85;;;3.95;;
81648;SDS011;71057;51.436;6.768;2023-08-01T10:03:44;5.10;;;3.67;;
81648;SDS011;71057;51.436;6.768;2023-08-01T10:06:09;5.57;;;4.60;;
81648;SDS011;71057;51.436;6.768;2023-08-01T10:08:36;5.35;;;4.05;;
81648;SDS011;71057;51.436;6.768;2023-08-01T10:11:04;5.83;;;3.80;;
81648;SDS011;71057;51.436;6.768;2023-08-01T10:13:29;5.60;;;4.88;;
81648;SDS011;71057;51.436;6.768;2023-08-01T10:15:55;8.20;;;4.00;;
81648;SDS011;71057;51.436;6.768;2023-08-01T10:18:20;6.17;;;4.73;;
81648;SDS011;71057;51.436;6.768;2023-08-01T10:20:45;9.13;;;4.77;;
81648;SDS011;71057;51.436;6.768;2023-08-01T10:23:11;5.85;;;4.18;;
81648;SDS011;71057;51.436;6.768;2023-08-01T10:25:37;8.60;;;4.28;;
81648;SDS011;71057;51.436;6.768;2023-08-01T10:28:04;7.03;;;3.65;;
81648;SDS011;71057;51.436;6.768;2023-08-01T10:30:30;7.18;;;4.20;;
81648;SDS011;71057;51.436;6.768;2023-08-01T10:32:56;6.10;;;3.80;;
81648;SDS011;71057;51.436;6.768;2023-08-01T10:35:37;7.55;;;4.03;;
81648;SDS011;71057;51.436;6.768;2023-08-01T10:38:04;5.28;;;3.80;;
81648;SDS011;71057;51.436;6.768;2023-08-01T10:40:33;6.85;;;3.97;;
81648;SDS011;71057;51.436;6.768;2023-08-01T10:42:58;5.25;;;3.55;;
81648;SDS011;71057;51.436;6.768;2023-08-01T10:45:23;8.10;;;5.07;;
81648;SDS011;71057;51.436;6.768;2023-08-01T10:47:51;6.40;;;4.95;;
81648;SDS011;71057;51.436;6.768;2023-08-01T10:50:17;4.95;;;4.10;;
81648;SDS011;71057;51.436;6.768;2023-08-01T10:52:42;7.65;;;5.50;;
81648;SDS011;71057;51.436;6.768;2023-08-01T10:55:09;11.75;;;6.65;;
81648;SDS011;71057;51.436;6.768;2023-08-01T10:57:35;16.20;;;7.05;;
81648;SDS011;71057;51.436;6.768;2023-08-01T11:00:00;14.50;;;8.52;;
81648;SDS011;71057;51.436;6.768;2023-08-01T11:02:26;16.43;;;10.37;;
81648;SDS011;71057;51.436;6.768;2023-08-01T11:04:56;14.80;;;11.25;;
81648;SDS011;71057;51.436;6.768;2023-08-01T11:07:21;14.55;;;6.55;;
81648;SDS011;71057;51.436;6.768;2023-08-01T11:09:46;9.07;;;4.90;;
81648;SDS011;71057;51.436;6.768;2023-08-01T11:12:12;7.40;;;5.77;;
81648;SDS011;71057;51.436;6.768;2023-08-01T11:14:37;6.47;;;4.57;;
81648;SDS011;71057;51.436;6.768;2023-08-01T11:17:02;4.77;;;3.40;;
81648;SDS011;71057;51.436;6.768;2023-08-01T11:19:29;7.45;;;4.50;;
81648;SDS011;71057;51.436;6.768;2023-08-01T11:21:55;7.95;;;5.95;;
81648;SDS011;71057;51.436;6.768;2023-08-01T11:24:25;10.07;;;6.32;;
81648;SDS011;71057;51.436;6.768;2023-08-01T11:26:51;7.50;;;6.30;;
81648;SDS011;71057;51.436;6.768;2023-08-01T11:29:17;9.40;;;5.70;;
81648;SDS011;71057;51.436;6.768;2023-08-01T11:31:54;9.70;;;6.07;;
81648;SDS011;71057;51.436;6.768;2023-08-01T11:34:20;10.40;;;6.32;;
81648;SDS011;71057;51.436;6.768;2023-08-01T11:36:45;12.43;;;6.03;;
81648;SDS011;71057;51.436;6.768;2023-08-01T11:39:11;11.82;;;6.13;;
81648;SDS011;71057;51.436;6.768;2023-08-01T11:41:36;9.88;;;5.47;;
81648;SDS011;71057;51.436;6.768;2023-08-01T11:44:02;6.77;;;3.80;;
81648;SDS011;71057;51.436;6.768;2023-08-01T11:46:31;8.60;;;3.83;;
81648;SDS011;71057;51.436;6.768;2023-08-01T11:48:57;6.78;;;3.80;;
81648;SDS011;71057;51.436;6.768;2023-08-01T11:51:23;4.18;;;3.30;;
81648;SDS011;71057;51.436;6.768;2023-08-01T11:53:57;6.97;;;3.60;;
81648;SDS011;71057;51.436;6.768;2023-08-01T11:56:23;8.50;;;3.80;;
81648;SDS011;71057;51.436;6.768;2023-08-01T11:58:48;5.55;;;3.45;;
81648;SDS011;71057;51.436;6.768;2023-08-01T12:01:14;7.03;;;4.15;;
81648;SDS011;71057;51.436;6.768;2023-08-01T12:03:42;7.60;;;4.50;;
81648;SDS011;71057;51.436;6.768;2023-08-01T12:06:07;7.20;;;4.10;;
81648;SDS011;71057;51.436;6.768;2023-08-01T12:08:33;8.50;;;4.10;;
81648;SDS011;71057;51.436;6.768;2023-08-01T12:10:58;8.75;;;5.30;;
81648;SDS011;71057;51.436;6.768;2023-08-01T12:13:24;9.27;;;5.37;;
81648;SDS011;71057;51.436;6.768;2023-08-01T12:15:55;9.25;;;5.05;;
81648;SDS011;71057;51.436;6.768;2023-08-01T12:20:46;9.52;;;5.40;;
81648;SDS011;71057;51.436;6.768;2023-08-01T12:23:11;8.10;;;5.90;;
81648;SDS011;71057;51.436;6.768;2023-08-01T12:25:36;7.83;;;5.40;;
81648;SDS011;71057;51.436;6.768;2023-08-01T12:28:02;10.77;;;6.27;;
81648;SDS011;71057;51.436;6.768;2023-08-01T12:30:27;8.73;;;5.43;;
81648;SDS011;71057;51.436;6.768;2023-08-01T12:32:52;11.53;;;5.17;;
81648;SDS011;71057;51.436;6.768;2023-08-01T12:35:18;10.07;;;6.15;;
81648;SDS011;71057;51.436;6.768;2023-08-01T12:37:43;8.83;;;6.13;;
81648;SDS011;71057;51.436;6.768;2023-08-01T12:40:08;7.33;;;5.30;;
81648;SDS011;71057;51.436;6.768;2023-08-01T12:42:33;4.57;;;3.97;;
81648;SDS011;71057;51.436;6.768;2023-08-01T12:44:59;6.07;;;4.17;;
81648;SDS011;71057;51.436;6.768;2023-08-01T12:47:24;8.60;;;4.47;;
81648;SDS011;71057;51.436;6.768;2023-08-01T12:49:49;7.03;;;3.67;;
81648;SDS011;71057;51.436;6.768;2023-08-01T12:52:21;6.07;;;3.15;;
81648;SDS011;71057;51.436;6.768;2023-08-01T12:54:47;5.13;;;3.25;;
81648;SDS011;71057;51.436;6.768;2023-08-01T12:57:12;7.23;;;3.33;;
81648;SDS011;71057;51.436;6.768;2023-08-01T12:59:37;6.27;;;3.70;;
81648;SDS011;71057;51.436;6.768;2023-08-01T13:02:02;6.43;;;3.33;;
81648;SDS011;71057;51.436;6.768;2023-08-01T13:04:33;6.03;;;3.90;;
81648;SDS011;71057;51.436;6.768;2023-08-01T13:06:58;4.60;;;2.80;;
81648;SDS011;71057;51.436;6.768;2023-08-01T13:09:23;5.40;;;3.17;;
81648;SDS011;71057;51.436;6.768;2023-08-01T13:11:48;6.97;;;3.10;;
81648;SDS011;71057;51.436;6.768;2023-08-01T13:14:13;3.83;;;2.60;;
81648;SDS011;71057;51.436;6.768;2023-08-01T13:16:39;6.30;;;3.33;;
81648;SDS011;71057;51.436;6.768;2023-08-01T13:19:04;4.60;;;2.80;;
81648;SDS011;71057;51.436;6.768;2023-08-01T13:21:29;7.40;;;2.93;;
81648;SDS011;71057;51.436;6.768;2023-08-01T13:23:54;6.23;;;3.13;;
81648;SDS011;71057;51.436;6.768;2023-08-01T13:26:19;6.27;;;3.27;;
81648;SDS011;71057;51.436;6.768;2023-08-01T13:28:45;7.73;;;3.00;;
81648;SDS011;71057;51.436;6.768;2023-08-01T13:31:10;6.10;;;3.33;;
81648;SDS011;71057;51.436;6.768;2023-08-01T13:33:35;4.30;;;2.97;;
81648;SDS011;71057;51.436;6.768;2023-08-01T13:36:00;8.13;;;3.33;;
81648;SDS011;71057;51.436;6.768;2023-08-01T13:38:26;5.75;;;3.55;;
81648;SDS011;71057;51.436;6.768;2023-08-01T13:40:51;8.33;;;3.20;;
81648;SDS011;71057;51.436;6.768;2023-08-01T13:43:16;9.57;;;3.13;;
81648;SDS011;71057;51.436;6.768;2023-08-01T13:45:41;7.40;;;3.30;;
81648;SDS011;71057;51.436;6.768;2023-08-01T13:48:07;7.65;;;3.78;;
81648;SDS011;71057;51.436;6.768;2023-08-01T13:50:32;6.40;;;3.43;;
81648;SDS011;71057;51.436;6.768;2023-08-01T13:52:58;7.27;;;3.20;;
81648;SDS011;71057;51.436;6.768;2023-08-01T13:55:23;6.73;;;3.07;;
81648;SDS011;71057;51.436;6.768;2023-08-01T13:57:48;3.87;;;2.30;;
81648;SDS011;71057;51.436;6.768;2023-08-01T14:00:13;5.50;;;3.23;;
81648;SDS011;71057;51.436;6.768;2023-08-01T14:02:38;5.72;;;2.42;;
81648;SDS011;71057;51.436;6.768;2023-08-01T14:05:04;7.77;;;2.53;;
81648;SDS011;71057;51.436;6.768;2023-08-01T14:07:29;5.18;;;2.45;;
81648;SDS011;71057;51.436;6.768;2023-08-01T14:09:54;5.63;;;2.23;;
81648;SDS011;71057;51.436;6.768;2023-08-01T14:12:19;6.60;;;2.83;;
81648;SDS011;71057;51.436;6.768;2023-08-01T14:14:45;7.20;;;2.90;;
81648;SDS011;71057;51.436;6.768;2023-08-01T14:17:10;4.88;;;2.17;;
81648;SDS011;71057;51.436;6.768;2023-08-01T14:19:35;5.33;;;2.10;;
81648;SDS011;71057;51.436;6.768;2023-08-01T14:22:01;4.13;;;2.38;;
81648;SDS011;71057;51.436;6.768;2023-08-01T14:24:26;6.18;;;2.08;;
81648;SDS011;71057;51.436;6.768;2023-08-01T14:26:51;3.97;;;2.27;;
81648;SDS011;71057;51.436;6.768;2023-08-01T14:29:17;5.90;;;2.20;;
81648;SDS011;71057;51.436;6.768;2023-08-01T14:31:46;4.47;;;2.47;;